sensor_id;sensor_type;location;lat;lon;timestamp;P1;durP1;ratioP1;P2;durP2;ratioP2
3791;SDS011;1911;53.768;11.474;2022-12-26T00:01:19;10.93;;;7.07;;
3791;SDS011;1911;53.768;11.474;2022-12-26T00:03:47;15.47;;;8.10;;
3791;SDS011;1911;53.768;11.474;2022-12-26T00:06:14;17.70;;;6.83;;
3791;SDS011;1911;53.768;11.474;2022-12-26T00:08:45;12.10;;;6.40;;
3791;SDS011;1911;53.768;11.474;2022-12-26T00:11:11;16.23;;;7.10;;
3791;SDS011;1911;53.768;11.474;2022-12-26T00:13:37;30.40;;;8.27;;
3791;SDS011;1911;53.768;11.474;2022-12-26T00:16:08;148.43;;;14.67;;
3791;SDS011;1911;53.768;11.474;2022-12-26T00:18:35;38.13;;;6.77;;
3791;SDS011;1911;53.768;11.474;2022-12-26T00:21:01;163.63;;;13.87;;
3791;SDS011;1911;53.768;11.474;2022-12-26T00:23:27;131.17;;;13.23;;
3791;SDS011;1911;53.768;11.474;2022-12-26T00:25:52;157.57;;;18.47;;
3791;SDS011;1911;53.768;11.474;2022-12-26T00:28:18;44.87;;;9.97;;
3791;SDS011;1911;53.768;11.474;2022-12-26T00:30:43;32.77;;;8.77;;
3791;SDS011;1911;53.768;11.474;2022-12-26T00:33:09;39.13;;;8.17;;
3791;SDS011;1911;53.768;11.474;2022-12-26T00:35:34;26.60;;;8.10;;
3791;SDS011;1911;53.768;11.474;2022-12-26T00:38:00;34.67;;;8.37;;
3791;SDS011;1911;53.768;11.474;2022-12-26T00:40:26;35.13;;;8.90;;
3791;SDS011;1911;53.768;11.474;2022-12-26T00:42:51;19.60;;;8.13;;
3791;SDS011;1911;53.768;11.474;2022-12-26T00:45:17;21.57;;;9.97;;
3791;SDS011;1911;53.768;11.474;2022-12-26T00:47:42;23.43;;;9.30;;
3791;SDS011;1911;53.768;11.474;2022-12-26T00:50:08;70.70;;;12.27;;
3791;SDS011;1911;53.768;11.474;2022-12-26T00:52:34;16.30;;;6.23;;
3791;SDS011;1911;53.768;11.474;2022-12-26T00:54:59;69.13;;;8.77;;
3791;SDS011;1911;53.768;11.474;2022-12-26T00:57:25;30.57;;;7.30;;
3791;SDS011;1911;53.768;11.474;2022-12-26T00:59:51;65.13;;;7.10;;
3791;SDS011;1911;53.768;11.474;2022-12-26T01:02:16;89.63;;;8.63;;
3791;SDS011;1911;53.768;11.474;2022-12-26T01:05:00;62.03;;;7.70;;
3791;SDS011;1911;53.768;11.474;2022-12-26T01:07:25;68.47;;;8.20;;
3791;SDS011;1911;53.768;11.474;2022-12-26T01:09:51;95.87;;;10.67;;
3791;SDS011;1911;53.768;11.474;2022-12-26T01:12:17;79.37;;;9.47;;
3791;SDS011;1911;53.768;11.474;2022-12-26T01:14:42;94.03;;;10.67;;
3791;SDS011;1911;53.768;11.474;2022-12-26T01:17:08;97.17;;;11.43;;
3791;SDS011;1911;53.768;11.474;2022-12-26T01:19:33;139.40;;;14.30;;
3791;SDS011;1911;53.768;11.474;2022-12-26T01:22:00;68.90;;;7.10;;
3791;SDS011;1911;53.768;11.474;2022-12-26T01:24:25;126.20;;;13.40;;
3791;SDS011;1911;53.768;11.474;2022-12-26T01:26:51;74.40;;;8.20;;
3791;SDS011;1911;53.768;11.474;2022-12-26T01:29:17;13.00;;;4.00;;
3791;SDS011;1911;53.768;11.474;2022-12-26T01:31:42;23.90;;;6.20;;
3791;SDS011;1911;53.768;11.474;2022-12-26T01:34:08;26.73;;;6.03;;
3791;SDS011;1911;53.768;11.474;2022-12-26T01:36:34;55.53;;;8.00;;
3791;SDS011;1911;53.768;11.474;2022-12-26T01:39:00;35.60;;;6.00;;
3791;SDS011;1911;53.768;11.474;2022-12-26T01:41:25;69.77;;;7.80;;
3791;SDS011;1911;53.768;11.474;2022-12-26T01:46:21;48.77;;;7.47;;
3791;SDS011;1911;53.768;11.474;2022-12-26T01:48:53;25.23;;;5.70;;
3791;SDS011;1911;53.768;11.474;2022-12-26T01:51:23;26.00;;;6.40;;
3791;SDS011;1911;53.768;11.474;2022-12-26T01:53:53;11.67;;;5.87;;
3791;SDS011;1911;53.768;11.474;2022-12-26T01:56:26;11.20;;;5.27;;
3791;SDS011;1911;53.768;11.474;2022-12-26T01:59:01;13.60;;;4.73;;
3791;SDS011;1911;53.768;11.474;2022-12-26T02:01:30;16.97;;;5.57;;
3791;SDS011;1911;53.768;11.474;2022-12-26T02:03:59;8.93;;;5.97;;
3791;SDS011;1911;53.768;11.474;2022-12-26T02:06:45;11.90;;;5.00;;
3791;SDS011;1911;53.768;11.474;2022-12-26T02:09:11;10.10;;;4.57;;
3791;SDS011;1911;53.768;11.474;2022-12-26T02:11:38;10.30;;;4.93;;
3791;SDS011;1911;53.768;11.474;2022-12-26T02:14:08;16.27;;;6.33;;
3791;SDS011;1911;53.768;11.474;2022-12-26T02:16:36;13.33;;;5.07;;
3791;SDS011;1911;53.768;11.474;2022-12-26T02:19:03;13.00;;;5.87;;
3791;SDS011;1911;53.768;11.474;2022-12-26T02:24:41;13.53;;;4.60;;
3791;SDS011;1911;53.768;11.474;2022-12-26T02:27:20;10.20;;;4.23;;
3791;SDS011;1911;53.768;11.474;2022-12-26T02:32:52;7.63;;;3.77;;
3791;SDS011;1911;53.768;11.474;2022-12-26T02:35:30;13.67;;;4.27;;
3791;SDS011;1911;53.768;11.474;2022-12-26T02:38:10;9.77;;;4.47;;
3791;SDS011;1911;53.768;11.474;2022-12-26T02:49:18;9.03;;;4.00;;
3791;SDS011;1911;53.768;11.474;2022-12-26T03:00:56;5.83;;;2.77;;
3791;SDS011;1911;53.768;11.474;2022-12-26T03:03:45;9.27;;;3.60;;
3791;SDS011;1911;53.768;11.474;2022-12-26T03:06:32;8.10;;;3.67;;
3791;SDS011;1911;53.768;11.474;2022-12-26T03:09:22;7.80;;;3.47;;
3791;SDS011;1911;53.768;11.474;2022-12-26T03:12:23;6.40;;;3.47;;
3791;SDS011;1911;53.768;11.474;2022-12-26T03:15:15;9.07;;;4.43;;
3791;SDS011;1911;53.768;11.474;2022-12-26T03:17:49;11.00;;;4.67;;
3791;SDS011;1911;53.768;11.474;2022-12-26T03:20:23;6.40;;;3.90;;
3791;SDS011;1911;53.768;11.474;2022-12-26T03:22:54;7.77;;;3.70;;
3791;SDS011;1911;53.768;11.474;2022-12-26T03:28:37;5.63;;;4.00;;
3791;SDS011;1911;53.768;11.474;2022-12-26T03:31:06;5.43;;;3.10;;
3791;SDS011;1911;53.768;11.474;2022-12-26T03:33:35;7.57;;;3.40;;
3791;SDS011;1911;53.768;11.474;2022-12-26T03:38:54;6.77;;;3.60;;
3791;SDS011;1911;53.768;11.474;2022-12-26T03:42:15;5.30;;;3.47;;
3791;SDS011;1911;53.768;11.474;2022-12-26T03:47:52;5.70;;;3.83;;
3791;SDS011;1911;53.768;11.474;2022-12-26T03:50:45;9.30;;;4.67;;
3791;SDS011;1911;53.768;11.474;2022-12-26T03:53:34;6.87;;;4.17;;
3791;SDS011;1911;53.768;11.474;2022-12-26T03:56:31;7.67;;;3.90;;
3791;SDS011;1911;53.768;11.474;2022-12-26T03:59:31;8.60;;;4.27;;
3791;SDS011;1911;53.768;11.474;2022-12-26T04:02:20;8.43;;;4.80;;
3791;SDS011;1911;53.768;11.474;2022-12-26T04:05:06;12.30;;;5.47;;
3791;SDS011;1911;53.768;11.474;2022-12-26T04:07:54;11.67;;;5.27;;
3791;SDS011;1911;53.768;11.474;2022-12-26T04:10:43;13.40;;;6.20;;
3791;SDS011;1911;53.768;11.474;2022-12-26T04:13:37;13.53;;;6.70;;
3791;SDS011;1911;53.768;11.474;2022-12-26T04:16:36;14.47;;;6.70;;
3791;SDS011;1911;53.768;11.474;2022-12-26T04:22:20;89.10;;;12.50;;
3791;SDS011;1911;53.768;11.474;2022-12-26T04:27:56;80.87;;;13.30;;
3791;SDS011;1911;53.768;11.474;2022-12-26T04:30:40;67.80;;;12.40;;
3791;SDS011;1911;53.768;11.474;2022-12-26T04:33:30;146.10;;;18.27;;
3791;SDS011;1911;53.768;11.474;2022-12-26T04:36:24;34.77;;;9.63;;
3791;SDS011;1911;53.768;11.474;2022-12-26T04:39:15;47.33;;;9.57;;
3791;SDS011;1911;53.768;11.474;2022-12-26T04:42:03;64.47;;;9.80;;
3791;SDS011;1911;53.768;11.474;2022-12-26T04:44:48;30.30;;;7.87;;
3791;SDS011;1911;53.768;11.474;2022-12-26T04:47:14;39.23;;;7.00;;
3791;SDS011;1911;53.768;11.474;2022-12-26T04:49:41;34.83;;;8.97;;
3791;SDS011;1911;53.768;11.474;2022-12-26T04:52:27;18.43;;;6.80;;
3791;SDS011;1911;53.768;11.474;2022-12-26T04:55:13;25.03;;;7.17;;
3791;SDS011;1911;53.768;11.474;2022-12-26T04:57:39;16.17;;;4.93;;
3791;SDS011;1911;53.768;11.474;2022-12-26T05:00:05;13.17;;;5.07;;
3791;SDS011;1911;53.768;11.474;2022-12-26T05:02:31;47.23;;;6.90;;
3791;SDS011;1911;53.768;11.474;2022-12-26T05:05:15;144.20;;;15.13;;
3791;SDS011;1911;53.768;11.474;2022-12-26T05:07:59;69.53;;;9.23;;
3791;SDS011;1911;53.768;11.474;2022-12-26T05:10:43;20.70;;;6.13;;
3791;SDS011;1911;53.768;11.474;2022-12-26T05:13:08;25.13;;;7.30;;
3791;SDS011;1911;53.768;11.474;2022-12-26T05:15:35;44.13;;;7.57;;
3791;SDS011;1911;53.768;11.474;2022-12-26T05:18:20;36.83;;;6.70;;
3791;SDS011;1911;53.768;11.474;2022-12-26T05:21:07;168.20;;;17.40;;
3791;SDS011;1911;53.768;11.474;2022-12-26T05:23:56;35.80;;;9.77;;
3791;SDS011;1911;53.768;11.474;2022-12-26T05:26:40;52.90;;;9.17;;
3791;SDS011;1911;53.768;11.474;2022-12-26T05:29:24;67.53;;;10.17;;
3791;SDS011;1911;53.768;11.474;2022-12-26T05:31:50;131.30;;;15.20;;
3791;SDS011;1911;53.768;11.474;2022-12-26T05:34:15;114.90;;;14.80;;
3791;SDS011;1911;53.768;11.474;2022-12-26T05:36:48;103.47;;;13.37;;
3791;SDS011;1911;53.768;11.474;2022-12-26T05:39:17;59.90;;;8.90;;
3791;SDS011;1911;53.768;11.474;2022-12-26T05:41:43;105.90;;;12.50;;
3791;SDS011;1911;53.768;11.474;2022-12-26T05:44:08;33.20;;;6.53;;
3791;SDS011;1911;53.768;11.474;2022-12-26T05:46:34;29.43;;;6.07;;
3791;SDS011;1911;53.768;11.474;2022-12-26T05:49:01;11.90;;;4.87;;
3791;SDS011;1911;53.768;11.474;2022-12-26T05:51:27;11.40;;;5.00;;
3791;SDS011;1911;53.768;11.474;2022-12-26T05:53:52;14.60;;;6.30;;
3791;SDS011;1911;53.768;11.474;2022-12-26T05:56:18;17.63;;;6.13;;
3791;SDS011;1911;53.768;11.474;2022-12-26T05:58:45;16.00;;;5.77;;
3791;SDS011;1911;53.768;11.474;2022-12-26T06:01:15;35.83;;;8.40;;
3791;SDS011;1911;53.768;11.474;2022-12-26T06:03:42;84.43;;;11.70;;
3791;SDS011;1911;53.768;11.474;2022-12-26T06:06:14;112.07;;;11.47;;
3791;SDS011;1911;53.768;11.474;2022-12-26T06:08:41;144.93;;;15.60;;
3791;SDS011;1911;53.768;11.474;2022-12-26T06:11:08;100.47;;;13.00;;
3791;SDS011;1911;53.768;11.474;2022-12-26T06:13:35;66.93;;;9.80;;
3791;SDS011;1911;53.768;11.474;2022-12-26T06:16:05;59.40;;;9.10;;
3791;SDS011;1911;53.768;11.474;2022-12-26T06:18:36;169.73;;;14.90;;
3791;SDS011;1911;53.768;11.474;2022-12-26T06:21:11;91.67;;;10.63;;
3791;SDS011;1911;53.768;11.474;2022-12-26T06:23:39;78.47;;;10.60;;
3791;SDS011;1911;53.768;11.474;2022-12-26T06:26:05;55.87;;;9.50;;
3791;SDS011;1911;53.768;11.474;2022-12-26T06:28:33;100.47;;;13.40;;
3791;SDS011;1911;53.768;11.474;2022-12-26T06:31:07;49.93;;;7.93;;
3791;SDS011;1911;53.768;11.474;2022-12-26T06:33:42;122.30;;;12.27;;
3791;SDS011;1911;53.768;11.474;2022-12-26T06:36:12;105.17;;;11.00;;
3791;SDS011;1911;53.768;11.474;2022-12-26T06:38:40;34.47;;;8.07;;
3791;SDS011;1911;53.768;11.474;2022-12-26T06:41:07;59.80;;;8.83;;
3791;SDS011;1911;53.768;11.474;2022-12-26T06:43:34;96.40;;;11.57;;
3791;SDS011;1911;53.768;11.474;2022-12-26T06:46:01;136.80;;;13.67;;
3791;SDS011;1911;53.768;11.474;2022-12-26T06:48:28;78.50;;;11.13;;
3791;SDS011;1911;53.768;11.474;2022-12-26T06:50:53;132.50;;;13.40;;
3791;SDS011;1911;53.768;11.474;2022-12-26T06:53:20;55.43;;;9.73;;
3791;SDS011;1911;53.768;11.474;2022-12-26T06:55:46;121.93;;;14.37;;
3791;SDS011;1911;53.768;11.474;2022-12-26T06:58:12;149.13;;;14.00;;
3791;SDS011;1911;53.768;11.474;2022-12-26T07:00:38;48.43;;;7.17;;
3791;SDS011;1911;53.768;11.474;2022-12-26T07:03:04;166.77;;;15.70;;
3791;SDS011;1911;53.768;11.474;2022-12-26T07:05:30;153.23;;;16.67;;
3791;SDS011;1911;53.768;11.474;2022-12-26T07:07:55;146.07;;;12.67;;
3791;SDS011;1911;53.768;11.474;2022-12-26T07:10:21;93.83;;;11.73;;
3791;SDS011;1911;53.768;11.474;2022-12-26T07:12:46;89.57;;;12.37;;
3791;SDS011;1911;53.768;11.474;2022-12-26T07:15:13;39.67;;;7.90;;
3791;SDS011;1911;53.768;11.474;2022-12-26T07:17:39;16.70;;;7.60;;
3791;SDS011;1911;53.768;11.474;2022-12-26T07:20:05;24.30;;;8.70;;
3791;SDS011;1911;53.768;11.474;2022-12-26T07:22:32;18.97;;;7.90;;
3791;SDS011;1911;53.768;11.474;2022-12-26T07:24:57;15.37;;;6.80;;
3791;SDS011;1911;53.768;11.474;2022-12-26T07:27:23;17.53;;;7.40;;
3791;SDS011;1911;53.768;11.474;2022-12-26T07:29:49;20.83;;;7.43;;
3791;SDS011;1911;53.768;11.474;2022-12-26T07:32:14;14.73;;;7.17;;
3791;SDS011;1911;53.768;11.474;2022-12-26T07:34:40;16.40;;;7.80;;
3791;SDS011;1911;53.768;11.474;2022-12-26T07:37:06;18.63;;;6.50;;
3791;SDS011;1911;53.768;11.474;2022-12-26T07:39:32;19.50;;;7.80;;
3791;SDS011;1911;53.768;11.474;2022-12-26T07:41:59;20.73;;;7.30;;
3791;SDS011;1911;53.768;11.474;2022-12-26T07:44:26;23.50;;;8.20;;
3791;SDS011;1911;53.768;11.474;2022-12-26T07:46:53;20.37;;;6.87;;
3791;SDS011;1911;53.768;11.474;2022-12-26T07:49:20;24.30;;;8.00;;
3791;SDS011;1911;53.768;11.474;2022-12-26T07:51:46;20.03;;;8.33;;
3791;SDS011;1911;53.768;11.474;2022-12-26T07:54:12;25.57;;;7.47;;
3791;SDS011;1911;53.768;11.474;2022-12-26T07:56:39;25.03;;;7.17;;
3791;SDS011;1911;53.768;11.474;2022-12-26T07:59:05;74.93;;;11.03;;
3791;SDS011;1911;53.768;11.474;2022-12-26T08:01:31;42.47;;;8.97;;
3791;SDS011;1911;53.768;11.474;2022-12-26T08:03:57;26.60;;;6.73;;
3791;SDS011;1911;53.768;11.474;2022-12-26T08:06:22;35.60;;;7.17;;
3791;SDS011;1911;53.768;11.474;2022-12-26T08:08:49;27.87;;;7.60;;
3791;SDS011;1911;53.768;11.474;2022-12-26T08:11:16;17.70;;;7.10;;
3791;SDS011;1911;53.768;11.474;2022-12-26T08:13:43;32.33;;;8.70;;
3791;SDS011;1911;53.768;11.474;2022-12-26T08:16:10;12.30;;;7.30;;
3791;SDS011;1911;53.768;11.474;2022-12-26T08:22:00;16.67;;;8.30;;
3791;SDS011;1911;53.768;11.474;2022-12-26T08:24:31;17.97;;;8.90;;
3791;SDS011;1911;53.768;11.474;2022-12-26T08:26:56;16.10;;;7.43;;
3791;SDS011;1911;53.768;11.474;2022-12-26T08:29:22;16.57;;;8.80;;
3791;SDS011;1911;53.768;11.474;2022-12-26T08:31:47;16.73;;;8.83;;
3791;SDS011;1911;53.768;11.474;2022-12-26T08:34:13;23.00;;;8.83;;
3791;SDS011;1911;53.768;11.474;2022-12-26T08:36:39;18.43;;;9.27;;
3791;SDS011;1911;53.768;11.474;2022-12-26T08:39:05;19.13;;;7.37;;
3791;SDS011;1911;53.768;11.474;2022-12-26T08:41:30;23.73;;;9.10;;
3791;SDS011;1911;53.768;11.474;2022-12-26T08:43:56;21.40;;;8.40;;
3791;SDS011;1911;53.768;11.474;2022-12-26T08:46:22;19.47;;;9.20;;
3791;SDS011;1911;53.768;11.474;2022-12-26T08:48:48;16.90;;;9.07;;
3791;SDS011;1911;53.768;11.474;2022-12-26T08:51:16;16.63;;;9.17;;
3791;SDS011;1911;53.768;11.474;2022-12-26T08:53:43;20.00;;;9.90;;
3791;SDS011;1911;53.768;11.474;2022-12-26T08:56:11;16.73;;;8.70;;
3791;SDS011;1911;53.768;11.474;2022-12-26T08:58:39;17.33;;;8.03;;
3791;SDS011;1911;53.768;11.474;2022-12-26T09:01:06;15.80;;;7.17;;
3791;SDS011;1911;53.768;11.474;2022-12-26T09:03:36;11.63;;;6.73;;
3791;SDS011;1911;53.768;11.474;2022-12-26T09:06:02;16.87;;;7.40;;
3791;SDS011;1911;53.768;11.474;2022-12-26T09:08:28;12.47;;;6.37;;
3791;SDS011;1911;53.768;11.474;2022-12-26T09:10:55;12.00;;;6.70;;
3791;SDS011;1911;53.768;11.474;2022-12-26T09:13:26;12.47;;;7.30;;
3791;SDS011;1911;53.768;11.474;2022-12-26T09:15:51;14.77;;;7.47;;
3791;SDS011;1911;53.768;11.474;2022-12-26T09:18:17;11.60;;;6.30;;
3791;SDS011;1911;53.768;11.474;2022-12-26T09:20:42;14.30;;;8.00;;
3791;SDS011;1911;53.768;11.474;2022-12-26T09:23:08;13.40;;;7.30;;
3791;SDS011;1911;53.768;11.474;2022-12-26T09:25:35;10.50;;;6.50;;
3791;SDS011;1911;53.768;11.474;2022-12-26T09:28:00;9.43;;;5.50;;
3791;SDS011;1911;53.768;11.474;2022-12-26T09:30:26;9.67;;;5.40;;
3791;SDS011;1911;53.768;11.474;2022-12-26T09:32:52;8.80;;;6.20;;
3791;SDS011;1911;53.768;11.474;2022-12-26T09:35:18;10.40;;;6.67;;
3791;SDS011;1911;53.768;11.474;2022-12-26T09:37:43;10.73;;;6.50;;
3791;SDS011;1911;53.768;11.474;2022-12-26T09:40:16;9.60;;;6.03;;
3791;SDS011;1911;53.768;11.474;2022-12-26T09:42:53;9.47;;;6.30;;
3791;SDS011;1911;53.768;11.474;2022-12-26T09:45:43;12.50;;;7.27;;
3791;SDS011;1911;53.768;11.474;2022-12-26T09:48:36;10.67;;;6.17;;
3791;SDS011;1911;53.768;11.474;2022-12-26T09:51:09;11.07;;;6.43;;
3791;SDS011;1911;53.768;11.474;2022-12-26T09:53:35;13.33;;;7.03;;
3791;SDS011;1911;53.768;11.474;2022-12-26T09:56:10;10.40;;;6.90;;
3791;SDS011;1911;53.768;11.474;2022-12-26T09:58:54;11.50;;;6.73;;
3791;SDS011;1911;53.768;11.474;2022-12-26T10:01:23;11.57;;;7.10;;
3791;SDS011;1911;53.768;11.474;2022-12-26T10:03:56;11.60;;;7.33;;
3791;SDS011;1911;53.768;11.474;2022-12-26T10:06:24;9.87;;;6.33;;
3791;SDS011;1911;53.768;11.474;2022-12-26T10:14:40;16.50;;;7.53;;
3791;SDS011;1911;53.768;11.474;2022-12-26T10:25:01;9.60;;;6.10;;
3791;SDS011;1911;53.768;11.474;2022-12-26T10:27:35;12.73;;;6.27;;
3791;SDS011;1911;53.768;11.474;2022-12-26T10:30:04;11.27;;;6.47;;
3791;SDS011;1911;53.768;11.474;2022-12-26T10:32:39;11.57;;;6.50;;
3791;SDS011;1911;53.768;11.474;2022-12-26T10:35:22;12.77;;;7.40;;
3791;SDS011;1911;53.768;11.474;2022-12-26T10:38:05;11.30;;;6.60;;
3791;SDS011;1911;53.768;11.474;2022-12-26T10:40:41;13.63;;;7.60;;
3791;SDS011;1911;53.768;11.474;2022-12-26T10:43:15;12.60;;;7.20;;
3791;SDS011;1911;53.768;11.474;2022-12-26T10:48:17;13.60;;;6.97;;
3791;SDS011;1911;53.768;11.474;2022-12-26T10:50:43;12.70;;;7.40;;
3791;SDS011;1911;53.768;11.474;2022-12-26T10:53:13;13.53;;;8.00;;
3791;SDS011;1911;53.768;11.474;2022-12-26T10:55:40;16.40;;;7.60;;
3791;SDS011;1911;53.768;11.474;2022-12-26T10:58:12;12.67;;;6.23;;
3791;SDS011;1911;53.768;11.474;2022-12-26T11:00:44;14.73;;;8.50;;
3791;SDS011;1911;53.768;11.474;2022-12-26T11:03:10;16.87;;;9.03;;
3791;SDS011;1911;53.768;11.474;2022-12-26T11:05:48;15.57;;;8.00;;
3791;SDS011;1911;53.768;11.474;2022-12-26T11:11:04;20.70;;;8.70;;
3791;SDS011;1911;53.768;11.474;2022-12-26T11:13:36;16.13;;;9.03;;
3791;SDS011;1911;53.768;11.474;2022-12-26T11:16:22;12.33;;;7.67;;
3791;SDS011;1911;53.768;11.474;2022-12-26T11:18:50;16.77;;;8.37;;
3791;SDS011;1911;53.768;11.474;2022-12-26T11:23:42;15.80;;;8.83;;
3791;SDS011;1911;53.768;11.474;2022-12-26T11:31:35;19.80;;;8.67;;
3791;SDS011;1911;53.768;11.474;2022-12-26T11:34:06;20.40;;;8.60;;
3791;SDS011;1911;53.768;11.474;2022-12-26T11:36:33;14.77;;;7.37;;
3791;SDS011;1911;53.768;11.474;2022-12-26T11:39:05;19.20;;;8.80;;
3791;SDS011;1911;53.768;11.474;2022-12-26T11:41:41;15.23;;;8.90;;
3791;SDS011;1911;53.768;11.474;2022-12-26T11:46:44;14.97;;;8.80;;
3791;SDS011;1911;53.768;11.474;2022-12-26T11:49:45;13.97;;;7.20;;
3791;SDS011;1911;53.768;11.474;2022-12-26T12:00:35;14.63;;;7.50;;
3791;SDS011;1911;53.768;11.474;2022-12-26T12:03:03;11.67;;;6.83;;
3791;SDS011;1911;53.768;11.474;2022-12-26T12:13:53;17.53;;;7.67;;
3791;SDS011;1911;53.768;11.474;2022-12-26T12:19:57;15.63;;;7.97;;
3791;SDS011;1911;53.768;11.474;2022-12-26T12:28:41;13.17;;;7.50;;
3791;SDS011;1911;53.768;11.474;2022-12-26T12:34:05;19.27;;;9.20;;
3791;SDS011;1911;53.768;11.474;2022-12-26T12:39:59;15.50;;;8.83;;
3791;SDS011;1911;53.768;11.474;2022-12-26T12:45:57;20.63;;;8.60;;
3791;SDS011;1911;53.768;11.474;2022-12-26T12:51:15;19.53;;;8.37;;
3791;SDS011;1911;53.768;11.474;2022-12-26T12:59:35;16.90;;;9.37;;
3791;SDS011;1911;53.768;11.474;2022-12-26T13:02:29;17.17;;;8.13;;
3791;SDS011;1911;53.768;11.474;2022-12-26T13:08:23;12.50;;;7.73;;
3791;SDS011;1911;53.768;11.474;2022-12-26T13:10:55;14.57;;;8.47;;
3791;SDS011;1911;53.768;11.474;2022-12-26T13:13:26;14.83;;;7.80;;
3791;SDS011;1911;53.768;11.474;2022-12-26T13:16:14;13.10;;;7.77;;
3791;SDS011;1911;53.768;11.474;2022-12-26T13:18:49;16.07;;;7.83;;
3791;SDS011;1911;53.768;11.474;2022-12-26T13:21:24;13.93;;;7.53;;
3791;SDS011;1911;53.768;11.474;2022-12-26T13:23:58;15.07;;;8.13;;
3791;SDS011;1911;53.768;11.474;2022-12-26T13:29:36;14.33;;;7.20;;
3791;SDS011;1911;53.768;11.474;2022-12-26T13:32:04;14.70;;;7.27;;
3791;SDS011;1911;53.768;11.474;2022-12-26T13:34:52;12.03;;;7.67;;
3791;SDS011;1911;53.768;11.474;2022-12-26T13:40:24;10.07;;;6.50;;
3791;SDS011;1911;53.768;11.474;2022-12-26T13:42:53;15.27;;;8.40;;
3791;SDS011;1911;53.768;11.474;2022-12-26T13:45:47;17.67;;;7.77;;
3791;SDS011;1911;53.768;11.474;2022-12-26T13:50:49;10.83;;;6.40;;
3791;SDS011;1911;53.768;11.474;2022-12-26T13:55:48;9.27;;;5.83;;
3791;SDS011;1911;53.768;11.474;2022-12-26T13:58:25;11.80;;;7.30;;
3791;SDS011;1911;53.768;11.474;2022-12-26T14:00:59;12.20;;;6.27;;
3791;SDS011;1911;53.768;11.474;2022-12-26T14:09:21;8.20;;;5.20;;
3791;SDS011;1911;53.768;11.474;2022-12-26T14:12:27;15.53;;;5.97;;
3791;SDS011;1911;53.768;11.474;2022-12-26T14:20:32;7.70;;;5.03;;
3791;SDS011;1911;53.768;11.474;2022-12-26T14:23:30;8.40;;;5.03;;
3791;SDS011;1911;53.768;11.474;2022-12-26T14:31:30;10.60;;;5.40;;
3791;SDS011;1911;53.768;11.474;2022-12-26T14:39:40;9.10;;;6.17;;
3791;SDS011;1911;53.768;11.474;2022-12-26T14:42:27;10.23;;;4.90;;
3791;SDS011;1911;53.768;11.474;2022-12-26T14:47:53;9.70;;;5.20;;
3791;SDS011;1911;53.768;11.474;2022-12-26T14:55:48;6.13;;;4.10;;
3791;SDS011;1911;53.768;11.474;2022-12-26T14:58:18;4.23;;;2.60;;
3791;SDS011;1911;53.768;11.474;2022-12-26T15:00:54;4.60;;;3.10;;
3791;SDS011;1911;53.768;11.474;2022-12-26T15:09:08;1.43;;;0.80;;
3791;SDS011;1911;53.768;11.474;2022-12-26T15:12:03;1.93;;;0.80;;
3791;SDS011;1911;53.768;11.474;2022-12-26T15:17:32;1.13;;;0.63;;
3791;SDS011;1911;53.768;11.474;2022-12-26T15:25:59;1.00;;;0.60;;
3791;SDS011;1911;53.768;11.474;2022-12-26T15:31:35;1.57;;;0.70;;
3791;SDS011;1911;53.768;11.474;2022-12-26T15:34:39;5.80;;;0.70;;
3791;SDS011;1911;53.768;11.474;2022-12-26T15:42:28;1.50;;;0.93;;
3791;SDS011;1911;53.768;11.474;2022-12-26T15:48:26;2.83;;;0.70;;
3791;SDS011;1911;53.768;11.474;2022-12-26T15:50:59;2.63;;;0.70;;
3791;SDS011;1911;53.768;11.474;2022-12-26T15:59:05;2.50;;;0.60;;
3791;SDS011;1911;53.768;11.474;2022-12-26T16:01:52;2.80;;;0.70;;
3791;SDS011;1911;53.768;11.474;2022-12-26T16:09:44;5.53;;;1.10;;
3791;SDS011;1911;53.768;11.474;2022-12-26T16:17:24;6.33;;;1.30;;
3791;SDS011;1911;53.768;11.474;2022-12-26T16:19:51;4.10;;;0.90;;
3791;SDS011;1911;53.768;11.474;2022-12-26T16:25:05;4.37;;;1.17;;
3791;SDS011;1911;53.768;11.474;2022-12-26T16:27:31;4.27;;;1.23;;
3791;SDS011;1911;53.768;11.474;2022-12-26T16:30:02;4.20;;;0.80;;
3791;SDS011;1911;53.768;11.474;2022-12-26T16:32:34;2.80;;;0.90;;
3791;SDS011;1911;53.768;11.474;2022-12-26T16:35:02;5.83;;;1.20;;
3791;SDS011;1911;53.768;11.474;2022-12-26T16:37:29;4.03;;;0.70;;
3791;SDS011;1911;53.768;11.474;2022-12-26T16:42:37;6.10;;;1.13;;
3791;SDS011;1911;53.768;11.474;2022-12-26T16:45:16;6.03;;;1.10;;
3791;SDS011;1911;53.768;11.474;2022-12-26T16:47:44;6.20;;;1.70;;
3791;SDS011;1911;53.768;11.474;2022-12-26T16:50:15;2.30;;;0.90;;
3791;SDS011;1911;53.768;11.474;2022-12-26T16:52:43;1.47;;;0.80;;
3791;SDS011;1911;53.768;11.474;2022-12-26T16:55:33;3.00;;;1.13;;
3791;SDS011;1911;53.768;11.474;2022-12-26T16:58:01;3.63;;;1.43;;
3791;SDS011;1911;53.768;11.474;2022-12-26T17:01:09;4.93;;;1.40;;
3791;SDS011;1911;53.768;11.474;2022-12-26T17:03:40;11.77;;;2.20;;
3791;SDS011;1911;53.768;11.474;2022-12-26T17:06:25;5.47;;;1.97;;
3791;SDS011;1911;53.768;11.474;2022-12-26T17:08:53;11.80;;;2.30;;
3791;SDS011;1911;53.768;11.474;2022-12-26T17:11:25;5.53;;;1.50;;
3791;SDS011;1911;53.768;11.474;2022-12-26T17:14:02;10.50;;;1.77;;
3791;SDS011;1911;53.768;11.474;2022-12-26T17:16:30;6.03;;;1.40;;
3791;SDS011;1911;53.768;11.474;2022-12-26T17:19:31;5.37;;;1.70;;
3791;SDS011;1911;53.768;11.474;2022-12-26T17:24:42;7.27;;;1.70;;
3791;SDS011;1911;53.768;11.474;2022-12-26T17:27:22;4.53;;;1.70;;
3791;SDS011;1911;53.768;11.474;2022-12-26T17:32:31;5.30;;;1.57;;
3791;SDS011;1911;53.768;11.474;2022-12-26T17:35:02;6.60;;;1.47;;
3791;SDS011;1911;53.768;11.474;2022-12-26T17:37:36;5.10;;;1.57;;
3791;SDS011;1911;53.768;11.474;2022-12-26T17:42:47;6.47;;;1.70;;
3791;SDS011;1911;53.768;11.474;2022-12-26T17:45:22;7.50;;;2.57;;
3791;SDS011;1911;53.768;11.474;2022-12-26T17:47:53;7.23;;;2.23;;
3791;SDS011;1911;53.768;11.474;2022-12-26T17:50:23;6.77;;;1.63;;
3791;SDS011;1911;53.768;11.474;2022-12-26T17:52:54;6.20;;;1.30;;
3791;SDS011;1911;53.768;11.474;2022-12-26T17:55:46;5.43;;;1.80;;
3791;SDS011;1911;53.768;11.474;2022-12-26T17:58:12;6.07;;;1.57;;
3791;SDS011;1911;53.768;11.474;2022-12-26T18:00:39;13.97;;;2.80;;
3791;SDS011;1911;53.768;11.474;2022-12-26T18:03:08;11.73;;;2.50;;
3791;SDS011;1911;53.768;11.474;2022-12-26T18:05:34;4.23;;;1.60;;
3791;SDS011;1911;53.768;11.474;2022-12-26T18:08:04;9.40;;;1.50;;
3791;SDS011;1911;53.768;11.474;2022-12-26T18:10:33;6.13;;;1.50;;
3791;SDS011;1911;53.768;11.474;2022-12-26T18:28:26;8.40;;;2.60;;
3791;SDS011;1911;53.768;11.474;2022-12-26T18:30:52;10.30;;;2.00;;
3791;SDS011;1911;53.768;11.474;2022-12-26T18:33:21;6.23;;;1.97;;
3791;SDS011;1911;53.768;11.474;2022-12-26T18:35:54;15.60;;;2.80;;
3791;SDS011;1911;53.768;11.474;2022-12-26T18:38:24;7.40;;;2.30;;
3791;SDS011;1911;53.768;11.474;2022-12-26T18:41:20;6.20;;;1.80;;
3791;SDS011;1911;53.768;11.474;2022-12-26T18:44:28;11.10;;;3.30;;
3791;SDS011;1911;53.768;11.474;2022-12-26T18:46:58;7.77;;;2.40;;
3791;SDS011;1911;53.768;11.474;2022-12-26T18:49:46;16.93;;;3.43;;
3791;SDS011;1911;53.768;11.474;2022-12-26T18:52:34;22.90;;;3.53;;
3791;SDS011;1911;53.768;11.474;2022-12-26T18:54:59;8.80;;;1.97;;
3791;SDS011;1911;53.768;11.474;2022-12-26T18:57:25;19.33;;;2.87;;
3791;SDS011;1911;53.768;11.474;2022-12-26T18:59:50;10.27;;;2.50;;
3791;SDS011;1911;53.768;11.474;2022-12-26T19:02:17;8.87;;;2.17;;
3791;SDS011;1911;53.768;11.474;2022-12-26T19:04:43;8.33;;;2.37;;
3791;SDS011;1911;53.768;11.474;2022-12-26T19:07:12;9.20;;;2.17;;
3791;SDS011;1911;53.768;11.474;2022-12-26T19:09:45;15.10;;;2.60;;
3791;SDS011;1911;53.768;11.474;2022-12-26T19:12:12;12.83;;;2.10;;
3791;SDS011;1911;53.768;11.474;2022-12-26T19:14:39;13.40;;;2.63;;